KSMN

Details ICAO KSMN (SMN)
Name LEMHI CO
Region United States
Timezone America/Boise (UTC-7.0)
Plans Departing 4
Arriving 4
Stats Elevation 4,043 ft / 1,232 m (AMSL)
Location 45.123781° -113.881332°
Runways 1
Magnetic Variation 12.888° E
Sunrise 2017-12-14 15:08:17 UTC / 2017-12-14 08:08:17 Local
Sunset 2017-12-14 23:55:14 UTC / 2017-12-14 16:55:14 Local
Advertisement - Login to hide

Runways

ID Width Length Bearing (true) Bearing (mag) Surface Threshold Offset Overrun Length
17 60 ft / 18 m 5,152 ft / 1,570 m 187.76° 174.87° Asphalt 0 ft / 0 m 0 ft / 0 m
35 60 ft / 18 m 5,152 ft / 1,570 m 7.76° 354.87° Asphalt 0 ft / 0 m 0 ft / 0 m

Map

Weather


0- 5 10 15 20 25 30 35+ Temperature / ° C

Clouds and Precipitation
Forecast for 2017-12-14 18:00 UTC. Updated 26 minutes ago

Ground ~20,000 ft ~40,000 ft Winds

METAR

KSMN 141256Z AUTO 00000KT 8SM OVC038 M06/M07 A3051 RMK AO2 SLP386 T10561067 FZRANO

TAF

TAF KSMN 141120Z 1412/1512 VRB03KT 6SM BR SCT015 OVC040 FM141900 VRB03KT P6SM SCT050 BKN200

Frequencies

Recorded 135.07 MHz AWOS 3
Unicom 122.80 MHz CTAF/UNICOM
Warning: Do not use this data for real-world aviation or navigation. No guarantee of current accuracy is given.